sensor_id;sensor_type;location;lat;lon;timestamp;temperature;humidity
59311;DHT22;45078;51.654;21.250;2022-12-26T00:00:58;3.40;99.90
59311;DHT22;45078;51.654;21.250;2022-12-26T00:03:24;3.40;99.90
59311;DHT22;45078;51.654;21.250;2022-12-26T00:05:50;3.40;99.90
59311;DHT22;45078;51.654;21.250;2022-12-26T00:08:16;3.50;99.90
59311;DHT22;45078;51.654;21.250;2022-12-26T00:10:42;3.50;99.90
59311;DHT22;45078;51.654;21.250;2022-12-26T00:13:08;3.50;99.90
59311;DHT22;45078;51.654;21.250;2022-12-26T00:15:34;3.50;99.90
59311;DHT22;45078;51.654;21.250;2022-12-26T00:17:59;3.50;99.90
59311;DHT22;45078;51.654;21.250;2022-12-26T00:20:25;3.50;99.90
59311;DHT22;45078;51.654;21.250;2022-12-26T00:22:51;3.50;99.90
59311;DHT22;45078;51.654;21.250;2022-12-26T00:25:16;3.50;99.90
59311;DHT22;45078;51.654;21.250;2022-12-26T00:27:42;3.50;99.90
59311;DHT22;45078;51.654;21.250;2022-12-26T00:30:08;3.50;99.90
59311;DHT22;45078;51.654;21.250;2022-12-26T00:32:34;3.50;99.90
59311;DHT22;45078;51.654;21.250;2022-12-26T00:35:00;3.50;99.90
59311;DHT22;45078;51.654;21.250;2022-12-26T00:37:25;3.60;99.90
59311;DHT22;45078;51.654;21.250;2022-12-26T00:39:51;3.50;99.90
59311;DHT22;45078;51.654;21.250;2022-12-26T00:42:17;3.50;99.90
59311;DHT22;45078;51.654;21.250;2022-12-26T00:44:43;3.50;99.90
59311;DHT22;45078;51.654;21.250;2022-12-26T00:47:08;3.50;99.90
59311;DHT22;45078;51.654;21.250;2022-12-26T00:49:34;3.50;99.90
59311;DHT22;45078;51.654;21.250;2022-12-26T00:52:00;3.50;99.90
59311;DHT22;45078;51.654;21.250;2022-12-26T00:54:26;3.60;99.90
59311;DHT22;45078;51.654;21.250;2022-12-26T00:56:51;3.70;99.90
59311;DHT22;45078;51.654;21.250;2022-12-26T00:59:17;3.70;99.90
59311;DHT22;45078;51.654;21.250;2022-12-26T01:01:42;3.70;99.90
59311;DHT22;45078;51.654;21.250;2022-12-26T01:04:08;3.80;99.90
59311;DHT22;45078;51.654;21.250;2022-12-26T01:06:34;3.70;99.90
59311;DHT22;45078;51.654;21.250;2022-12-26T01:09:00;3.80;99.90
59311;DHT22;45078;51.654;21.250;2022-12-26T01:11:26;3.80;99.90
59311;DHT22;45078;51.654;21.250;2022-12-26T01:14:16;3.80;99.90
59311;DHT22;45078;51.654;21.250;2022-12-26T01:16:43;3.80;99.90
59311;DHT22;45078;51.654;21.250;2022-12-26T01:19:11;3.80;99.90
59311;DHT22;45078;51.654;21.250;2022-12-26T01:21:37;3.80;99.90
59311;DHT22;45078;51.654;21.250;2022-12-26T01:24:04;3.90;99.90
59311;DHT22;45078;51.654;21.250;2022-12-26T01:26:30;3.80;99.90
59311;DHT22;45078;51.654;21.250;2022-12-26T01:28:55;3.90;99.90
59311;DHT22;45078;51.654;21.250;2022-12-26T01:31:21;3.90;99.90
59311;DHT22;45078;51.654;21.250;2022-12-26T01:33:47;3.90;99.90
59311;DHT22;45078;51.654;21.250;2022-12-26T01:36:14;3.90;99.90
59311;DHT22;45078;51.654;21.250;2022-12-26T01:38:41;3.90;99.90
59311;DHT22;45078;51.654;21.250;2022-12-26T01:41:07;3.90;99.90
59311;DHT22;45078;51.654;21.250;2022-12-26T01:44:00;3.90;99.90
59311;DHT22;45078;51.654;21.250;2022-12-26T01:46:39;3.90;99.90
59311;DHT22;45078;51.654;21.250;2022-12-26T01:51:39;3.90;99.90
59311;DHT22;45078;51.654;21.250;2022-12-26T01:54:08;3.90;99.90
59311;DHT22;45078;51.654;21.250;2022-12-26T01:56:37;3.90;99.90
59311;DHT22;45078;51.654;21.250;2022-12-26T01:59:08;3.90;99.90
59311;DHT22;45078;51.654;21.250;2022-12-26T02:01:37;3.90;99.90
59311;DHT22;45078;51.654;21.250;2022-12-26T02:04:06;3.90;99.90
59311;DHT22;45078;51.654;21.250;2022-12-26T02:06:51;3.90;99.90
59311;DHT22;45078;51.654;21.250;2022-12-26T02:09:17;3.90;99.90
59311;DHT22;45078;51.654;21.250;2022-12-26T02:14:57;3.90;99.90
59311;DHT22;45078;51.654;21.250;2022-12-26T02:17:24;3.90;99.90
59311;DHT22;45078;51.654;21.250;2022-12-26T02:34:06;3.90;99.90
59311;DHT22;45078;51.654;21.250;2022-12-26T02:57:28;3.80;99.90
59311;DHT22;45078;51.654;21.250;2022-12-26T03:00:16;3.80;99.90
59311;DHT22;45078;51.654;21.250;2022-12-26T03:03:17;3.80;99.90
59311;DHT22;45078;51.654;21.250;2022-12-26T03:06:08;3.80;99.90
59311;DHT22;45078;51.654;21.250;2022-12-26T03:09:02;3.80;99.90
59311;DHT22;45078;51.654;21.250;2022-12-26T03:11:51;3.80;99.90
59311;DHT22;45078;51.654;21.250;2022-12-26T03:14:41;3.80;99.90
59311;DHT22;45078;51.654;21.250;2022-12-26T03:17:11;3.70;99.90
59311;DHT22;45078;51.654;21.250;2022-12-26T03:28:19;3.70;99.90
59311;DHT22;45078;51.654;21.250;2022-12-26T03:30:45;3.70;99.90
59311;DHT22;45078;51.654;21.250;2022-12-26T03:33:25;3.70;99.90
59311;DHT22;45078;51.654;21.250;2022-12-26T04:00:53;3.80;99.90
59311;DHT22;45078;51.654;21.250;2022-12-26T04:03:39;3.80;99.90
59311;DHT22;45078;51.654;21.250;2022-12-26T04:06:29;3.80;99.90
59311;DHT22;45078;51.654;21.250;2022-12-26T04:09:25;3.80;99.90
59311;DHT22;45078;51.654;21.250;2022-12-26T04:12:21;3.80;99.90
59311;DHT22;45078;51.654;21.250;2022-12-26T04:18:58;3.80;99.90
59311;DHT22;45078;51.654;21.250;2022-12-26T04:24:51;3.80;99.90
59311;DHT22;45078;51.654;21.250;2022-12-26T04:27:37;3.80;99.90
59311;DHT22;45078;51.654;21.250;2022-12-26T04:30:21;3.80;99.90
59311;DHT22;45078;51.654;21.250;2022-12-26T04:33:29;3.80;99.90
59311;DHT22;45078;51.654;21.250;2022-12-26T04:36:29;3.80;99.90
59311;DHT22;45078;51.654;21.250;2022-12-26T04:39:18;3.80;99.90
59311;DHT22;45078;51.654;21.250;2022-12-26T04:42:05;3.80;99.90
59311;DHT22;45078;51.654;21.250;2022-12-26T04:44:51;3.80;99.90
59311;DHT22;45078;51.654;21.250;2022-12-26T04:47:17;3.80;99.90
59311;DHT22;45078;51.654;21.250;2022-12-26T04:49:44;3.80;99.90
59311;DHT22;45078;51.654;21.250;2022-12-26T04:52:29;3.80;99.90
59311;DHT22;45078;51.654;21.250;2022-12-26T04:55:16;3.80;99.90
59311;DHT22;45078;51.654;21.250;2022-12-26T04:57:42;3.80;99.90
59311;DHT22;45078;51.654;21.250;2022-12-26T05:00:08;3.80;99.90
59311;DHT22;45078;51.654;21.250;2022-12-26T05:02:34;3.80;99.90
59311;DHT22;45078;51.654;21.250;2022-12-26T05:05:18;3.80;99.90
59311;DHT22;45078;51.654;21.250;2022-12-26T05:08:02;3.80;99.90
59311;DHT22;45078;51.654;21.250;2022-12-26T05:10:46;3.80;99.90
59311;DHT22;45078;51.654;21.250;2022-12-26T05:13:12;3.80;99.90
59311;DHT22;45078;51.654;21.250;2022-12-26T05:15:38;3.80;99.90
59311;DHT22;45078;51.654;21.250;2022-12-26T05:18:22;3.80;99.90
59311;DHT22;45078;51.654;21.250;2022-12-26T05:21:13;3.80;99.90
59311;DHT22;45078;51.654;21.250;2022-12-26T05:24:00;3.80;99.90
59311;DHT22;45078;51.654;21.250;2022-12-26T05:26:45;3.80;99.90
59311;DHT22;45078;51.654;21.250;2022-12-26T05:29:29;3.80;99.90
59311;DHT22;45078;51.654;21.250;2022-12-26T05:31:54;3.80;99.90
59311;DHT22;45078;51.654;21.250;2022-12-26T05:34:20;3.80;99.90
59311;DHT22;45078;51.654;21.250;2022-12-26T05:36:50;3.90;99.90
59311;DHT22;45078;51.654;21.250;2022-12-26T05:39:17;3.90;99.90
59311;DHT22;45078;51.654;21.250;2022-12-26T05:41:42;3.90;99.90
59311;DHT22;45078;51.654;21.250;2022-12-26T05:44:09;3.90;99.90
59311;DHT22;45078;51.654;21.250;2022-12-26T05:46:36;3.90;99.90
59311;DHT22;45078;51.654;21.250;2022-12-26T05:49:03;3.90;99.90
59311;DHT22;45078;51.654;21.250;2022-12-26T05:51:29;3.90;99.90
59311;DHT22;45078;51.654;21.250;2022-12-26T05:53:55;3.90;99.90
59311;DHT22;45078;51.654;21.250;2022-12-26T05:56:20;3.90;99.90
59311;DHT22;45078;51.654;21.250;2022-12-26T05:58:47;3.90;99.90
59311;DHT22;45078;51.654;21.250;2022-12-26T06:01:19;3.90;99.90
59311;DHT22;45078;51.654;21.250;2022-12-26T06:03:47;3.90;99.90
59311;DHT22;45078;51.654;21.250;2022-12-26T06:06:14;3.90;99.90
59311;DHT22;45078;51.654;21.250;2022-12-26T06:08:40;3.90;99.90
59311;DHT22;45078;51.654;21.250;2022-12-26T06:11:09;3.90;99.90
59311;DHT22;45078;51.654;21.250;2022-12-26T06:13:34;3.90;99.90
59311;DHT22;45078;51.654;21.250;2022-12-26T06:16:09;3.90;99.90
59311;DHT22;45078;51.654;21.250;2022-12-26T06:18:35;3.90;99.90
59311;DHT22;45078;51.654;21.250;2022-12-26T06:21:06;3.90;99.90
59311;DHT22;45078;51.654;21.250;2022-12-26T06:23:33;3.90;99.90
59311;DHT22;45078;51.654;21.250;2022-12-26T06:25:59;3.90;99.90
59311;DHT22;45078;51.654;21.250;2022-12-26T06:28:25;3.90;99.90
59311;DHT22;45078;51.654;21.250;2022-12-26T06:30:51;4.00;99.90
59311;DHT22;45078;51.654;21.250;2022-12-26T06:33:17;4.00;99.90
59311;DHT22;45078;51.654;21.250;2022-12-26T06:35:43;3.90;99.90
59311;DHT22;45078;51.654;21.250;2022-12-26T06:38:09;4.00;99.90
59311;DHT22;45078;51.654;21.250;2022-12-26T06:40:39;4.00;99.90
59311;DHT22;45078;51.654;21.250;2022-12-26T06:43:06;4.00;99.90
59311;DHT22;45078;51.654;21.250;2022-12-26T06:45:32;4.00;99.90
59311;DHT22;45078;51.654;21.250;2022-12-26T06:47:58;4.00;99.90
59311;DHT22;45078;51.654;21.250;2022-12-26T06:50:24;4.00;99.90
59311;DHT22;45078;51.654;21.250;2022-12-26T06:52:50;4.00;99.90
59311;DHT22;45078;51.654;21.250;2022-12-26T06:55:16;4.10;99.90
59311;DHT22;45078;51.654;21.250;2022-12-26T06:57:42;4.10;99.90
59311;DHT22;45078;51.654;21.250;2022-12-26T07:00:08;4.10;99.90
59311;DHT22;45078;51.654;21.250;2022-12-26T07:02:34;4.10;99.90
59311;DHT22;45078;51.654;21.250;2022-12-26T07:05:00;4.10;99.90
59311;DHT22;45078;51.654;21.250;2022-12-26T07:07:26;4.10;99.90
59311;DHT22;45078;51.654;21.250;2022-12-26T07:09:52;4.10;99.90
59311;DHT22;45078;51.654;21.250;2022-12-26T07:12:18;4.10;99.90
59311;DHT22;45078;51.654;21.250;2022-12-26T07:14:46;4.10;99.90
59311;DHT22;45078;51.654;21.250;2022-12-26T07:17:12;4.10;99.90
59311;DHT22;45078;51.654;21.250;2022-12-26T07:19:38;4.10;99.90
59311;DHT22;45078;51.654;21.250;2022-12-26T07:22:04;4.20;99.90
59311;DHT22;45078;51.654;21.250;2022-12-26T07:24:30;4.20;99.90
59311;DHT22;45078;51.654;21.250;2022-12-26T07:26:55;4.20;99.90
59311;DHT22;45078;51.654;21.250;2022-12-26T07:29:21;4.20;99.90
59311;DHT22;45078;51.654;21.250;2022-12-26T07:31:47;4.20;99.90
59311;DHT22;45078;51.654;21.250;2022-12-26T07:34:13;4.20;99.90
59311;DHT22;45078;51.654;21.250;2022-12-26T07:36:40;4.20;99.90
59311;DHT22;45078;51.654;21.250;2022-12-26T07:39:06;4.20;99.90
59311;DHT22;45078;51.654;21.250;2022-12-26T07:41:32;4.20;99.90
59311;DHT22;45078;51.654;21.250;2022-12-26T07:44:16;4.20;99.90
59311;DHT22;45078;51.654;21.250;2022-12-26T07:46:42;4.20;99.90
59311;DHT22;45078;51.654;21.250;2022-12-26T07:49:09;4.30;99.90
59311;DHT22;45078;51.654;21.250;2022-12-26T07:51:36;4.30;99.90
59311;DHT22;45078;51.654;21.250;2022-12-26T07:54:01;4.30;99.90
59311;DHT22;45078;51.654;21.250;2022-12-26T07:56:27;4.30;99.90
59311;DHT22;45078;51.654;21.250;2022-12-26T07:58:53;4.30;99.90
59311;DHT22;45078;51.654;21.250;2022-12-26T08:01:19;4.40;99.90
59311;DHT22;45078;51.654;21.250;2022-12-26T08:03:47;4.40;99.90
59311;DHT22;45078;51.654;21.250;2022-12-26T08:06:13;4.50;99.90
59311;DHT22;45078;51.654;21.250;2022-12-26T08:08:39;4.50;99.90
59311;DHT22;45078;51.654;21.250;2022-12-26T08:11:07;4.50;99.90
59311;DHT22;45078;51.654;21.250;2022-12-26T08:13:33;4.60;99.90
59311;DHT22;45078;51.654;21.250;2022-12-26T08:16:06;4.60;99.90
59311;DHT22;45078;51.654;21.250;2022-12-26T08:18:32;4.70;99.90
59311;DHT22;45078;51.654;21.250;2022-12-26T08:20:58;4.70;99.90
59311;DHT22;45078;51.654;21.250;2022-12-26T08:23:24;4.70;99.90
59311;DHT22;45078;51.654;21.250;2022-12-26T08:25:50;4.70;99.90
59311;DHT22;45078;51.654;21.250;2022-12-26T08:28:16;4.80;99.90
59311;DHT22;45078;51.654;21.250;2022-12-26T08:30:42;4.90;99.90
59311;DHT22;45078;51.654;21.250;2022-12-26T08:33:09;5.00;99.90
59311;DHT22;45078;51.654;21.250;2022-12-26T08:35:35;5.00;99.90
59311;DHT22;45078;51.654;21.250;2022-12-26T08:38:01;5.00;99.90
59311;DHT22;45078;51.654;21.250;2022-12-26T08:40:27;5.10;99.90
59311;DHT22;45078;51.654;21.250;2022-12-26T08:42:53;5.20;99.90
59311;DHT22;45078;51.654;21.250;2022-12-26T08:45:19;5.30;99.90
59311;DHT22;45078;51.654;21.250;2022-12-26T08:47:44;5.40;99.90
59311;DHT22;45078;51.654;21.250;2022-12-26T08:50:10;5.40;99.90
59311;DHT22;45078;51.654;21.250;2022-12-26T08:52:36;5.40;99.90
59311;DHT22;45078;51.654;21.250;2022-12-26T08:55:02;5.30;99.90
59311;DHT22;45078;51.654;21.250;2022-12-26T08:57:29;5.40;99.90
59311;DHT22;45078;51.654;21.250;2022-12-26T08:59:54;5.40;99.90
59311;DHT22;45078;51.654;21.250;2022-12-26T09:02:20;5.50;99.90
59311;DHT22;45078;51.654;21.250;2022-12-26T09:04:46;5.50;99.90
59311;DHT22;45078;51.654;21.250;2022-12-26T09:07:12;5.50;99.90
59311;DHT22;45078;51.654;21.250;2022-12-26T09:09:38;5.40;99.90
59311;DHT22;45078;51.654;21.250;2022-12-26T09:12:04;5.50;99.90
59311;DHT22;45078;51.654;21.250;2022-12-26T09:14:29;5.60;99.90
59311;DHT22;45078;51.654;21.250;2022-12-26T09:16:55;5.50;99.90
59311;DHT22;45078;51.654;21.250;2022-12-26T09:19:21;5.50;99.90
59311;DHT22;45078;51.654;21.250;2022-12-26T09:21:48;5.50;99.90
59311;DHT22;45078;51.654;21.250;2022-12-26T09:24:34;5.50;99.90
59311;DHT22;45078;51.654;21.250;2022-12-26T09:27:00;5.50;99.90
59311;DHT22;45078;51.654;21.250;2022-12-26T09:29:26;5.50;99.90
59311;DHT22;45078;51.654;21.250;2022-12-26T09:31:54;5.60;99.90
59311;DHT22;45078;51.654;21.250;2022-12-26T09:34:20;5.70;99.90
59311;DHT22;45078;51.654;21.250;2022-12-26T09:36:45;5.70;99.90
59311;DHT22;45078;51.654;21.250;2022-12-26T09:39:11;5.70;99.90
59311;DHT22;45078;51.654;21.250;2022-12-26T09:47:40;5.80;99.90
59311;DHT22;45078;51.654;21.250;2022-12-26T09:57:51;6.00;99.90
59311;DHT22;45078;51.654;21.250;2022-12-26T10:00:24;6.20;99.90
59311;DHT22;45078;51.654;21.250;2022-12-26T10:02:53;6.20;99.90
59311;DHT22;45078;51.654;21.250;2022-12-26T10:05:22;6.30;99.90
59311;DHT22;45078;51.654;21.250;2022-12-26T10:08:00;6.30;99.90
59311;DHT22;45078;51.654;21.250;2022-12-26T10:16:10;6.50;99.90
59311;DHT22;45078;51.654;21.250;2022-12-26T10:19:24;6.50;99.90
59311;DHT22;45078;51.654;21.250;2022-12-26T10:22:14;6.60;99.90
59311;DHT22;45078;51.654;21.250;2022-12-26T10:24:41;6.60;99.90
59311;DHT22;45078;51.654;21.250;2022-12-26T10:27:20;6.70;99.90
59311;DHT22;45078;51.654;21.250;2022-12-26T10:29:57;6.80;99.90
59311;DHT22;45078;51.654;21.250;2022-12-26T10:32:29;6.90;99.90
59311;DHT22;45078;51.654;21.250;2022-12-26T10:34:58;6.90;99.90
59311;DHT22;45078;51.654;21.250;2022-12-26T10:37:34;6.90;99.90
59311;DHT22;45078;51.654;21.250;2022-12-26T10:42:39;7.00;99.90
59311;DHT22;45078;51.654;21.250;2022-12-26T10:45:21;7.00;99.90
59311;DHT22;45078;51.654;21.250;2022-12-26T10:47:51;7.10;99.90
59311;DHT22;45078;51.654;21.250;2022-12-26T10:50:28;7.20;99.90
59311;DHT22;45078;51.654;21.250;2022-12-26T10:52:56;7.30;99.90
59311;DHT22;45078;51.654;21.250;2022-12-26T10:55:28;7.40;99.90
59311;DHT22;45078;51.654;21.250;2022-12-26T10:57:58;7.40;99.90
59311;DHT22;45078;51.654;21.250;2022-12-26T11:00:26;7.50;99.90
59311;DHT22;45078;51.654;21.250;2022-12-26T11:03:16;7.50;99.90
59311;DHT22;45078;51.654;21.250;2022-12-26T11:05:51;7.50;99.90
59311;DHT22;45078;51.654;21.250;2022-12-26T11:08:54;7.60;99.90
59311;DHT22;45078;51.654;21.250;2022-12-26T11:11:25;7.70;99.90
59311;DHT22;45078;51.654;21.250;2022-12-26T11:13:56;7.80;99.90
59311;DHT22;45078;51.654;21.250;2022-12-26T11:16:32;7.90;99.90
59311;DHT22;45078;51.654;21.250;2022-12-26T11:18:59;8.00;99.90
59311;DHT22;45078;51.654;21.250;2022-12-26T11:21:27;8.10;99.90
59311;DHT22;45078;51.654;21.250;2022-12-26T11:24:17;8.30;99.90
59311;DHT22;45078;51.654;21.250;2022-12-26T11:26:46;8.40;99.90
59311;DHT22;45078;51.654;21.250;2022-12-26T11:29:17;8.60;99.90
59311;DHT22;45078;51.654;21.250;2022-12-26T11:31:54;8.70;99.90
59311;DHT22;45078;51.654;21.250;2022-12-26T11:34:43;8.90;99.90
59311;DHT22;45078;51.654;21.250;2022-12-26T11:37:26;9.00;99.90
59311;DHT22;45078;51.654;21.250;2022-12-26T11:39:53;9.00;99.90
59311;DHT22;45078;51.654;21.250;2022-12-26T11:42:23;9.10;99.90
59311;DHT22;45078;51.654;21.250;2022-12-26T11:44:50;9.20;99.90
59311;DHT22;45078;51.654;21.250;2022-12-26T11:47:24;9.30;99.90
59311;DHT22;45078;51.654;21.250;2022-12-26T11:50:12;9.30;99.90
59311;DHT22;45078;51.654;21.250;2022-12-26T12:06:05;9.80;99.90
59311;DHT22;45078;51.654;21.250;2022-12-26T12:08:38;9.70;99.90
59311;DHT22;45078;51.654;21.250;2022-12-26T12:19:41;9.60;99.90
59311;DHT22;45078;51.654;21.250;2022-12-26T12:22:26;9.70;99.90
59311;DHT22;45078;51.654;21.250;2022-12-26T12:33:33;10.40;99.90
59311;DHT22;45078;51.654;21.250;2022-12-26T12:36:36;10.30;99.90
59311;DHT22;45078;51.654;21.250;2022-12-26T12:39:20;10.50;99.90
59311;DHT22;45078;51.654;21.250;2022-12-26T12:42:05;10.80;99.90
59311;DHT22;45078;51.654;21.250;2022-12-26T12:44:48;10.80;99.90
59311;DHT22;45078;51.654;21.250;2022-12-26T12:48:07;10.70;99.90
59311;DHT22;45078;51.654;21.250;2022-12-26T13:01:06;11.70;99.90
59311;DHT22;45078;51.654;21.250;2022-12-26T13:03:56;12.20;99.90
59311;DHT22;45078;51.654;21.250;2022-12-26T13:06:36;12.30;99.90
59311;DHT22;45078;51.654;21.250;2022-12-26T13:09:29;12.40;99.90
59311;DHT22;45078;51.654;21.250;2022-12-26T13:12:01;12.10;99.90
59311;DHT22;45078;51.654;21.250;2022-12-26T13:14:54;11.70;99.90
59311;DHT22;45078;51.654;21.250;2022-12-26T13:20:25;11.20;99.90
59311;DHT22;45078;51.654;21.250;2022-12-26T13:23:05;11.30;99.90
59311;DHT22;45078;51.654;21.250;2022-12-26T13:26:12;11.20;99.90
59311;DHT22;45078;51.654;21.250;2022-12-26T13:28:52;11.00;99.90
59311;DHT22;45078;51.654;21.250;2022-12-26T13:31:20;10.80;99.90
59311;DHT22;45078;51.654;21.250;2022-12-26T13:33:45;10.80;99.90
59311;DHT22;45078;51.654;21.250;2022-12-26T13:39:36;10.80;99.90
59311;DHT22;45078;51.654;21.250;2022-12-26T13:44:51;10.80;99.90
59311;DHT22;45078;51.654;21.250;2022-12-26T13:47:44;10.80;99.90
59311;DHT22;45078;51.654;21.250;2022-12-26T13:55:55;10.60;99.90
59311;DHT22;45078;51.654;21.250;2022-12-26T14:01:25;10.30;99.90
59311;DHT22;45078;51.654;21.250;2022-12-26T14:20:52;9.80;99.90
59311;DHT22;45078;51.654;21.250;2022-12-26T14:40:18;9.20;99.90
59311;DHT22;45078;51.654;21.250;2022-12-26T14:45:42;9.00;99.90
59311;DHT22;45078;51.654;21.250;2022-12-26T14:53:27;8.80;99.90
59311;DHT22;45078;51.654;21.250;2022-12-26T14:58:49;8.80;99.90
59311;DHT22;45078;51.654;21.250;2022-12-26T15:32:10;8.30;99.90
59311;DHT22;45078;51.654;21.250;2022-12-26T15:37:29;8.30;99.90
59311;DHT22;45078;51.654;21.250;2022-12-26T15:40:27;8.30;99.90
59311;DHT22;45078;51.654;21.250;2022-12-26T15:46:18;8.30;99.90
59311;DHT22;45078;51.654;21.250;2022-12-26T15:56:47;8.40;99.90
59311;DHT22;45078;51.654;21.250;2022-12-26T15:59:37;8.40;99.90
59311;DHT22;45078;51.654;21.250;2022-12-26T16:02:13;8.40;99.90
59311;DHT22;45078;51.654;21.250;2022-12-26T16:04:46;8.40;99.90
59311;DHT22;45078;51.654;21.250;2022-12-26T16:07:34;8.50;99.90
59311;DHT22;45078;51.654;21.250;2022-12-26T16:10:35;8.50;99.90
59311;DHT22;45078;51.654;21.250;2022-12-26T16:15:54;8.60;99.90
59311;DHT22;45078;51.654;21.250;2022-12-26T16:18:24;8.60;99.90
59311;DHT22;45078;51.654;21.250;2022-12-26T16:20:53;8.70;99.90
59311;DHT22;45078;51.654;21.250;2022-12-26T16:23:40;8.70;99.90
59311;DHT22;45078;51.654;21.250;2022-12-26T16:26:22;8.70;99.90
59311;DHT22;45078;51.654;21.250;2022-12-26T16:28:48;8.70;99.90
59311;DHT22;45078;51.654;21.250;2022-12-26T16:31:20;8.70;99.90
59311;DHT22;45078;51.654;21.250;2022-12-26T16:33:48;8.80;99.90
59311;DHT22;45078;51.654;21.250;2022-12-26T16:36:26;8.80;99.90
59311;DHT22;45078;51.654;21.250;2022-12-26T16:38:53;8.90;99.90
59311;DHT22;45078;51.654;21.250;2022-12-26T16:41:30;8.90;99.90
59311;DHT22;45078;51.654;21.250;2022-12-26T16:44:05;8.90;99.90
59311;DHT22;45078;51.654;21.250;2022-12-26T16:46:43;9.00;99.90
59311;DHT22;45078;51.654;21.250;2022-12-26T16:49:09;9.00;99.90
59311;DHT22;45078;51.654;21.250;2022-12-26T16:54:28;9.00;99.90
59311;DHT22;45078;51.654;21.250;2022-12-26T16:59:56;9.00;99.90
59311;DHT22;45078;51.654;21.250;2022-12-26T17:02:33;9.10;99.90
59311;DHT22;45078;51.654;21.250;2022-12-26T17:05:04;9.10;99.90
59311;DHT22;45078;51.654;21.250;2022-12-26T17:07:31;9.00;99.90
59311;DHT22;45078;51.654;21.250;2022-12-26T17:10:00;9.10;99.90
59311;DHT22;45078;51.654;21.250;2022-12-26T17:12:37;9.10;99.90
59311;DHT22;45078;51.654;21.250;2022-12-26T17:15:05;9.10;99.90
59311;DHT22;45078;51.654;21.250;2022-12-26T17:17:51;9.10;99.90
59311;DHT22;45078;51.654;21.250;2022-12-26T17:22:53;9.20;99.90
59311;DHT22;45078;51.654;21.250;2022-12-26T17:30:44;9.10;99.90
59311;DHT22;45078;51.654;21.250;2022-12-26T17:33:19;9.20;99.90
59311;DHT22;45078;51.654;21.250;2022-12-26T17:35:58;9.10;99.90
59311;DHT22;45078;51.654;21.250;2022-12-26T17:38:28;9.20;99.90
59311;DHT22;45078;51.654;21.250;2022-12-26T17:40:57;9.20;99.90
59311;DHT22;45078;51.654;21.250;2022-12-26T17:43:24;9.20;99.90
59311;DHT22;45078;51.654;21.250;2022-12-26T17:45:53;9.10;99.90
59311;DHT22;45078;51.654;21.250;2022-12-26T17:48:19;9.10;99.90
59311;DHT22;45078;51.654;21.250;2022-12-26T17:50:48;9.20;99.90
59311;DHT22;45078;51.654;21.250;2022-12-26T17:53:25;9.10;99.90
59311;DHT22;45078;51.654;21.250;2022-12-26T17:55:54;9.20;99.90
59311;DHT22;45078;51.654;21.250;2022-12-26T17:58:21;9.20;99.90
59311;DHT22;45078;51.654;21.250;2022-12-26T18:00:47;9.10;99.90
59311;DHT22;45078;51.654;21.250;2022-12-26T18:03:15;9.00;99.90
59311;DHT22;45078;51.654;21.250;2022-12-26T18:05:42;9.00;99.90
59311;DHT22;45078;51.654;21.250;2022-12-26T18:10:44;9.00;99.90
59311;DHT22;45078;51.654;21.250;2022-12-26T18:13:14;8.90;99.90
59311;DHT22;45078;51.654;21.250;2022-12-26T18:15:40;8.90;99.90
59311;DHT22;45078;51.654;21.250;2022-12-26T18:18:28;8.90;99.90
59311;DHT22;45078;51.654;21.250;2022-12-26T18:20:55;8.90;99.90
59311;DHT22;45078;51.654;21.250;2022-12-26T18:23:22;8.90;99.90
59311;DHT22;45078;51.654;21.250;2022-12-26T18:25:49;8.80;99.90
59311;DHT22;45078;51.654;21.250;2022-12-26T18:28:16;8.80;99.90
59311;DHT22;45078;51.654;21.250;2022-12-26T18:30:44;8.80;99.90
59311;DHT22;45078;51.654;21.250;2022-12-26T18:33:11;8.70;99.90
59311;DHT22;45078;51.654;21.250;2022-12-26T18:35:41;8.80;99.90
59311;DHT22;45078;51.654;21.250;2022-12-26T18:38:13;8.80;99.90
59311;DHT22;45078;51.654;21.250;2022-12-26T18:40:42;8.80;99.90
59311;DHT22;45078;51.654;21.250;2022-12-26T18:43:08;8.80;99.90
59311;DHT22;45078;51.654;21.250;2022-12-26T18:45:37;8.80;99.90
59311;DHT22;45078;51.654;21.250;2022-12-26T18:48:06;8.80;99.90
59311;DHT22;45078;51.654;21.250;2022-12-26T18:50:36;8.80;99.90
59311;DHT22;45078;51.654;21.250;2022-12-26T18:53:03;8.80;99.90
59311;DHT22;45078;51.654;21.250;2022-12-26T18:55:29;8.80;99.90
59311;DHT22;45078;51.654;21.250;2022-12-26T18:57:56;8.80;99.90
59311;DHT22;45078;51.654;21.250;2022-12-26T19:00:23;8.80;99.90
59311;DHT22;45078;51.654;21.250;2022-12-26T19:02:50;8.80;99.90
59311;DHT22;45078;51.654;21.250;2022-12-26T19:05:25;8.80;99.90
59311;DHT22;45078;51.654;21.250;2022-12-26T19:07:52;8.80;99.90
59311;DHT22;45078;51.654;21.250;2022-12-26T19:10:21;8.70;99.90
59311;DHT22;45078;51.654;21.250;2022-12-26T19:12:48;8.80;99.90
59311;DHT22;45078;51.654;21.250;2022-12-26T19:15:16;8.80;99.90
59311;DHT22;45078;51.654;21.250;2022-12-26T19:20:22;8.70;99.90
59311;DHT22;45078;51.654;21.250;2022-12-26T19:22:51;8.80;99.90
59311;DHT22;45078;51.654;21.250;2022-12-26T19:25:19;8.80;99.90
59311;DHT22;45078;51.654;21.250;2022-12-26T19:27:46;8.80;99.90
59311;DHT22;45078;51.654;21.250;2022-12-26T19:30:14;8.80;99.90
59311;DHT22;45078;51.654;21.250;2022-12-26T19:32:40;8.80;99.90
59311;DHT22;45078;51.654;21.250;2022-12-26T19:35:08;8.90;99.90
59311;DHT22;45078;51.654;21.250;2022-12-26T19:37:35;8.90;99.90
59311;DHT22;45078;51.654;21.250;2022-12-26T19:40:02;8.90;99.90
59311;DHT22;45078;51.654;21.250;2022-12-26T19:42:29;8.90;99.90
59311;DHT22;45078;51.654;21.250;2022-12-26T19:44:58;8.90;99.90
59311;DHT22;45078;51.654;21.250;2022-12-26T19:47:25;9.00;99.90
59311;DHT22;45078;51.654;21.250;2022-12-26T19:49:53;9.00;99.90
59311;DHT22;45078;51.654;21.250;2022-12-26T19:52:20;8.90;99.90
59311;DHT22;45078;51.654;21.250;2022-12-26T19:54:48;9.00;99.90
59311;DHT22;45078;51.654;21.250;2022-12-26T19:57:14;9.00;99.90
59311;DHT22;45078;51.654;21.250;2022-12-26T19:59:40;8.90;99.90
59311;DHT22;45078;51.654;21.250;2022-12-26T20:02:06;9.00;99.90
59311;DHT22;45078;51.654;21.250;2022-12-26T20:04:33;8.90;99.90
59311;DHT22;45078;51.654;21.250;2022-12-26T20:07:00;8.90;99.90
59311;DHT22;45078;51.654;21.250;2022-12-26T20:09:26;8.90;99.90
59311;DHT22;45078;51.654;21.250;2022-12-26T20:11:53;8.90;99.90
59311;DHT22;45078;51.654;21.250;2022-12-26T20:14:23;8.80;99.90
59311;DHT22;45078;51.654;21.250;2022-12-26T20:16:53;8.80;99.90
59311;DHT22;45078;51.654;21.250;2022-12-26T20:19:20;8.80;99.90
59311;DHT22;45078;51.654;21.250;2022-12-26T20:21:46;8.90;99.90
59311;DHT22;45078;51.654;21.250;2022-12-26T20:24:14;8.80;99.90
59311;DHT22;45078;51.654;21.250;2022-12-26T20:26:41;8.80;99.90
59311;DHT22;45078;51.654;21.250;2022-12-26T20:29:07;8.80;99.90
59311;DHT22;45078;51.654;21.250;2022-12-26T20:31:35;8.70;99.90